Time;durP1;ratioP1;P1;durP2;ratioP2;P2;SDS_P1;SDS_P2;PMS_P1;PMS_P2;Temp;Humidity;BMP_temperature;BMP_pressure;BME280_temperature;BME280_humidity;BME280_pressure;Samples;Min_cycle;Max_cycle;Signal;HPM_P1;HPM_P2
2021/12/18 00:00:09;;;;;;;1.03;0.10;;;;;;;;;;5033014;28;20343;-68
2021/12/18 00:02:34;;;;;;;0.93;0.10;;;;;;;;;;5032769;28;20060;-67
2021/12/18 00:04:59;;;;;;;0.93;0.20;;;;;;;;;;5032848;28;20022;-67
2021/12/18 00:07:24;;;;;;;0.40;0.13;;;;;;;;;;5032840;28;20033;-68
2021/12/18 00:09:52;;;;;;;0.40;0.17;;;;;;;;;;5033049;28;20358;-68
2021/12/18 00:12:17;;;;;;;1.38;0.20;;;;;;;;;;5032795;28;20408;-68
2021/12/18 00:14:43;;;;;;;0.25;0.20;;;;;;;;;;5032512;28;20108;-68
2021/12/18 00:17:08;;;;;;;0.63;0.10;;;;;;;;;;5031360;28;20033;-68
2021/12/18 00:19:34;;;;;;;1.52;0.28;;;;;;;;;;5032556;28;20096;-67
2021/12/18 00:22:00;;;;;;;1.38;0.30;;;;;;;;;;5032983;28;20014;-68
2021/12/18 00:24:25;;;;;;;0.15;0.00;;;;;;;;;;5032462;28;20017;-68
2021/12/18 00:26:50;;;;;;;0.35;0.20;;;;;;;;;;5032366;28;20439;-68
2021/12/18 00:29:16;;;;;;;0.57;0.22;;;;;;;;;;5032533;28;20527;-68
2021/12/18 00:31:41;;;;;;;0.30;0.25;;;;;;;;;;5032301;28;20031;-68
2021/12/18 00:34:06;;;;;;;0.10;0.03;;;;;;;;;;5031236;28;20023;-68
2021/12/18 00:36:31;;;;;;;1.13;0.23;;;;;;;;;;5030942;28;20301;-68
2021/12/18 00:38:56;;;;;;;0.10;0.03;;;;;;;;;;5032298;28;20270;-68
2021/12/18 00:44:02;;;;;;;0.90;0.20;;;;;;;;;;5032676;28;20364;-68
2021/12/18 00:46:35;;;;;;;0.00;0.00;;;;;;;;;;5032090;28;20041;-68
2021/12/18 00:49:02;;;;;;;1.30;0.30;;;;;;;;;;5032599;28;20064;-67
2021/12/18 00:51:27;;;;;;;0.38;0.17;;;;;;;;;;5032434;28;20451;-67
2021/12/18 00:53:53;;;;;;;0.90;0.13;;;;;;;;;;5031209;28;20049;-67
2021/12/18 00:56:18;;;;;;;0.55;0.20;;;;;;;;;;5032043;28;20098;-68
2021/12/18 00:58:43;;;;;;;0.10;0.07;;;;;;;;;;5031911;28;20511;-67
2021/12/18 01:01:10;;;;;;;0.25;0.20;;;;;;;;;;5033218;28;20253;-67
2021/12/18 01:03:37;;;;;;;1.00;0.10;;;;;;;;;;5036251;28;20101;-67
2021/12/18 01:06:03;;;;;;;1.17;0.20;;;;;;;;;;5036378;28;20424;-67
2021/12/18 01:08:28;;;;;;;1.00;0.20;;;;;;;;;;5034675;28;20315;-68
2021/12/18 01:13:26;;;;;;;0.47;0.10;;;;;;;;;;5036427;28;20258;-68
2021/12/18 01:15:55;;;;;;;0.22;0.10;;;;;;;;;;5036065;28;20075;-68
2021/12/18 01:23:48;;;;;;;0.90;0.15;;;;;;;;;;5035805;28;20535;-68
2021/12/18 01:26:13;;;;;;;0.03;0.00;;;;;;;;;;5034680;28;20022;-68
2021/12/18 01:28:39;;;;;;;0.73;0.52;;;;;;;;;;5035642;28;20124;-68
2021/12/18 01:31:04;;;;;;;0.35;0.20;;;;;;;;;;5035785;28;20025;-68
2021/12/18 01:33:29;;;;;;;1.10;0.38;;;;;;;;;;5035692;28;20017;-68
2021/12/18 01:35:55;;;;;;;0.30;0.20;;;;;;;;;;5035716;28;20382;-69
2021/12/18 01:38:22;;;;;;;1.08;0.22;;;;;;;;;;5035635;28;20324;-68
2021/12/18 01:40:48;;;;;;;0.73;0.20;;;;;;;;;;5035446;28;20022;-68
2021/12/18 01:51:34;;;;;;;1.17;0.30;;;;;;;;;;5035681;28;20496;-67
2021/12/18 01:53:59;;;;;;;0.15;0.10;;;;;;;;;;5035475;28;20068;-68
2021/12/18 01:56:26;;;;;;;1.10;0.20;;;;;;;;;;5035327;28;20033;-68
2021/12/18 01:58:51;;;;;;;0.20;0.10;;;;;;;;;;5034802;28;20083;-68
2021/12/18 02:01:17;;;;;;;0.40;0.20;;;;;;;;;;5035326;28;20469;-68
2021/12/18 02:03:43;;;;;;;0.17;0.10;;;;;;;;;;5033698;28;20093;-68
2021/12/18 02:06:09;;;;;;;1.08;0.30;;;;;;;;;;5034131;28;20531;-68
2021/12/18 02:08:36;;;;;;;0.65;0.10;;;;;;;;;;5034899;28;20033;-68
2021/12/18 02:21:48;;;;;;;0.38;0.10;;;;;;;;;;5034908;28;20063;-68
2021/12/18 02:24:15;;;;;;;0.17;0.03;;;;;;;;;;5033502;28;20022;-68
2021/12/18 02:26:40;;;;;;;0.95;0.50;;;;;;;;;;5034574;28;20017;-67
2021/12/18 02:29:05;;;;;;;0.93;0.27;;;;;;;;;;5034687;28;20423;-68
2021/12/18 02:31:31;;;;;;;0.98;0.15;;;;;;;;;;5034573;28;20303;-68
2021/12/18 02:33:56;;;;;;;0.73;0.20;;;;;;;;;;5034670;28;20044;-67
2021/12/18 02:36:24;;;;;;;0.95;0.20;;;;;;;;;;5034600;28;20515;-67
2021/12/18 02:43:48;;;;;;;0.25;0.15;;;;;;;;;;5034736;28;20242;-68
2021/12/18 02:46:19;;;;;;;0.55;0.30;;;;;;;;;;5034321;28;20104;-67
2021/12/18 02:48:44;;;;;;;0.08;0.00;;;;;;;;;;5034207;28;20103;-67
2021/12/18 02:51:10;;;;;;;0.90;0.20;;;;;;;;;;5034262;28;20516;-67
2021/12/18 02:53:37;;;;;;;0.45;0.10;;;;;;;;;;5034181;28;20017;-68
2021/12/18 02:56:04;;;;;;;1.23;0.20;;;;;;;;;;5034334;28;20071;-68
2021/12/18 02:58:30;;;;;;;0.63;0.20;;;;;;;;;;5033861;28;20405;-68
2021/12/18 03:00:57;;;;;;;0.20;0.10;;;;;;;;;;5034159;28;20058;-68
2021/12/18 03:03:26;;;;;;;1.13;0.38;;;;;;;;;;5034107;28;20362;-68
2021/12/18 03:06:05;;;;;;;0.55;0.10;;;;;;;;;;5034068;28;20022;-68
2021/12/18 03:08:41;;;;;;;0.32;0.10;;;;;;;;;;5033825;28;20025;-67
2021/12/18 03:24:40;;;;;;;1.75;0.20;;;;;;;;;;5032602;28;20318;-68
2021/12/18 03:27:07;;;;;;;0.00;0.00;;;;;;;;;;5033661;28;20048;-68
2021/12/18 03:29:32;;;;;;;0.40;0.10;;;;;;;;;;5033567;28;20329;-68
2021/12/18 03:31:57;;;;;;;0.28;0.10;;;;;;;;;;5033614;28;20045;-68
2021/12/18 03:34:22;;;;;;;0.10;0.10;;;;;;;;;;5033480;28;20029;-68
2021/12/18 03:36:48;;;;;;;0.17;0.13;;;;;;;;;;5033203;28;20251;-68
2021/12/18 03:39:16;;;;;;;0.43;0.05;;;;;;;;;;5033299;28;20278;-68
2021/12/18 03:41:41;;;;;;;0.15;0.10;;;;;;;;;;5033182;28;20152;-68
2021/12/18 03:44:06;;;;;;;1.25;0.10;;;;;;;;;;5033338;28;20321;-68
2021/12/18 03:46:31;;;;;;;0.52;0.00;;;;;;;;;;5033004;28;20132;-68
2021/12/18 03:48:56;;;;;;;0.40;0.20;;;;;;;;;;5033128;28;20029;-68
2021/12/18 03:51:22;;;;;;;0.33;0.10;;;;;;;;;;5033445;28;20026;-68
2021/12/18 03:53:47;;;;;;;0.25;0.10;;;;;;;;;;5033078;28;20247;-67
2021/12/18 03:56:12;;;;;;;0.03;0.00;;;;;;;;;;5033092;28;20032;-68
2021/12/18 03:58:37;;;;;;;0.37;0.00;;;;;;;;;;5031455;28;20064;-68
2021/12/18 04:01:02;;;;;;;0.93;0.38;;;;;;;;;;5032941;28;20270;-67
2021/12/18 04:03:27;;;;;;;1.92;0.10;;;;;;;;;;5032774;28;20060;-67
2021/12/18 04:05:53;;;;;;;0.40;0.17;;;;;;;;;;5032896;28;20123;-67
2021/12/18 04:08:18;;;;;;;0.75;0.20;;;;;;;;;;5032904;28;20257;-67
2021/12/18 04:10:43;;;;;;;0.68;0.10;;;;;;;;;;5032658;28;20024;-67
2021/12/18 04:13:09;;;;;;;0.20;0.10;;;;;;;;;;5032751;28;20037;-67
2021/12/18 04:15:35;;;;;;;0.30;0.20;;;;;;;;;;5032676;28;20017;-67
2021/12/18 04:18:00;;;;;;;0.40;0.10;;;;;;;;;;5032719;28;20067;-67
2021/12/18 04:20:26;;;;;;;0.45;0.20;;;;;;;;;;5032641;28;20021;-67
2021/12/18 04:22:51;;;;;;;0.40;0.28;;;;;;;;;;5032720;28;20022;-67
2021/12/18 04:25:16;;;;;;;0.20;0.10;;;;;;;;;;5032609;28;20362;-67
2021/12/18 04:27:42;;;;;;;0.00;0.00;;;;;;;;;;5032451;28;20026;-67
2021/12/18 04:30:07;;;;;;;1.10;0.10;;;;;;;;;;5032586;28;20021;-67
2021/12/18 04:32:32;;;;;;;0.65;0.20;;;;;;;;;;5031257;28;20345;-66
2021/12/18 04:34:57;;;;;;;1.95;0.20;;;;;;;;;;5032281;28;20017;-66
2021/12/18 04:37:23;;;;;;;0.23;0.10;;;;;;;;;;5032398;28;20506;-67
2021/12/18 04:39:48;;;;;;;0.25;0.10;;;;;;;;;;5032347;28;20249;-66
2021/12/18 04:42:13;;;;;;;0.32;0.10;;;;;;;;;;5032480;28;20029;-67
2021/12/18 04:44:38;;;;;;;0.40;0.13;;;;;;;;;;5030848;28;20460;-67
2021/12/18 04:47:04;;;;;;;0.60;0.20;;;;;;;;;;5032145;28;20396;-67
2021/12/18 04:49:29;;;;;;;0.20;0.20;;;;;;;;;;5032196;28;20242;-67
2021/12/18 04:51:54;;;;;;;0.20;0.10;;;;;;;;;;5032246;28;20270;-67
2021/12/18 04:54:19;;;;;;;0.52;0.22;;;;;;;;;;5032213;28;20297;-67
2021/12/18 04:56:44;;;;;;;1.33;0.20;;;;;;;;;;5031748;28;20021;-67
2021/12/18 04:59:10;;;;;;;0.10;0.00;;;;;;;;;;5032073;28;20026;-67
2021/12/18 05:01:38;;;;;;;0.00;0.00;;;;;;;;;;5032078;28;20026;-67
2021/12/18 05:04:05;;;;;;;0.55;0.10;;;;;;;;;;5032305;28;20010;-68
2021/12/18 05:06:31;;;;;;;0.10;0.00;;;;;;;;;;5032033;28;20369;-67
2021/12/18 05:08:57;;;;;;;0.57;0.20;;;;;;;;;;5030743;28;20029;-67
2021/12/18 05:11:22;;;;;;;0.90;0.20;;;;;;;;;;5032124;28;20136;-67
2021/12/18 05:13:47;;;;;;;1.23;0.20;;;;;;;;;;5032010;28;20472;-67
2021/12/18 05:16:12;;;;;;;0.50;0.13;;;;;;;;;;5032042;28;20247;-67
2021/12/18 05:18:37;;;;;;;0.60;0.37;;;;;;;;;;5031724;28;20021;-67
2021/12/18 05:21:02;;;;;;;0.35;0.10;;;;;;;;;;5032002;28;20254;-67
2021/12/18 05:23:28;;;;;;;0.57;0.10;;;;;;;;;;5031891;28;20044;-67
2021/12/18 05:25:53;;;;;;;0.22;0.08;;;;;;;;;;5031886;28;20258;-67
2021/12/18 05:28:18;;;;;;;1.07;0.20;;;;;;;;;;5032011;28;20036;-67
2021/12/18 05:30:43;;;;;;;0.40;0.10;;;;;;;;;;5031711;28;20298;-67
2021/12/18 05:33:10;;;;;;;0.00;0.00;;;;;;;;;;5031765;28;20251;-67
2021/12/18 05:35:35;;;;;;;0.40;0.20;;;;;;;;;;5032100;28;20021;-67
2021/12/18 05:38:06;;;;;;;0.37;0.10;;;;;;;;;;5031895;28;20108;-67
2021/12/18 05:40:33;;;;;;;0.98;0.10;;;;;;;;;;5031948;28;20368;-67
2021/12/18 05:42:58;;;;;;;1.00;0.20;;;;;;;;;;5032041;28;20014;-67
2021/12/18 05:45:23;;;;;;;0.17;0.17;;;;;;;;;;5031625;28;20021;-67
2021/12/18 05:47:48;;;;;;;0.45;0.10;;;;;;;;;;5033683;28;20764;-67
2021/12/18 05:50:15;;;;;;;0.40;0.10;;;;;;;;;;5035494;28;20412;-67
2021/12/18 05:52:40;;;;;;;0.50;0.10;;;;;;;;;;5035156;28;20026;-67
2021/12/18 05:55:06;;;;;;;0.85;0.10;;;;;;;;;;5035387;28;20022;-66
2021/12/18 05:57:31;;;;;;;0.85;0.20;;;;;;;;;;5035202;28;20032;-66
2021/12/18 05:59:56;;;;;;;0.38;0.05;;;;;;;;;;5035137;28;20420;-66
2021/12/18 06:02:22;;;;;;;0.37;0.17;;;;;;;;;;5035215;28;20100;-66
2021/12/18 06:04:47;;;;;;;0.10;0.10;;;;;;;;;;5034939;28;20293;-66
2021/12/18 06:07:29;;;;;;;0.65;0.03;;;;;;;;;;5035182;28;20025;-66
2021/12/18 06:09:55;;;;;;;0.28;0.10;;;;;;;;;;5033860;28;20024;-66
2021/12/18 06:12:20;;;;;;;0.52;0.10;;;;;;;;;;5035406;28;20372;-66
2021/12/18 06:14:46;;;;;;;0.00;0.00;;;;;;;;;;5034795;28;20030;-66
2021/12/18 06:17:11;;;;;;;1.25;0.10;;;;;;;;;;5034849;28;20025;-66
2021/12/18 06:19:36;;;;;;;0.53;0.10;;;;;;;;;;5034778;28;20037;-66
2021/12/18 06:22:01;;;;;;;0.10;0.00;;;;;;;;;;5034956;28;20316;-66
2021/12/18 06:24:28;;;;;;;0.57;0.10;;;;;;;;;;5033417;28;20028;-66
2021/12/18 06:26:53;;;;;;;0.77;0.10;;;;;;;;;;5034643;28;20045;-66
2021/12/18 06:29:18;;;;;;;0.15;0.00;;;;;;;;;;5034909;28;20061;-66
2021/12/18 06:31:44;;;;;;;0.30;0.10;;;;;;;;;;5034619;28;20030;-66
2021/12/18 06:34:09;;;;;;;0.33;0.00;;;;;;;;;;5034706;28;20133;-66
2021/12/18 06:36:34;;;;;;;0.20;0.00;;;;;;;;;;5033122;28;20251;-66
2021/12/18 06:38:59;;;;;;;0.38;0.10;;;;;;;;;;5034557;28;20056;-67
2021/12/18 06:41:24;;;;;;;0.53;0.20;;;;;;;;;;5033240;28;20021;-66
2021/12/18 06:43:50;;;;;;;0.10;0.00;;;;;;;;;;5034716;28;20031;-67
2021/12/18 06:46:15;;;;;;;1.38;0.20;;;;;;;;;;5034342;28;20060;-67
2021/12/18 06:48:40;;;;;;;0.52;0.10;;;;;;;;;;5034131;28;20033;-67
2021/12/18 06:51:06;;;;;;;1.30;0.10;;;;;;;;;;5034394;28;20073;-67
2021/12/18 06:53:31;;;;;;;0.55;0.20;;;;;;;;;;5034158;28;20293;-67
2021/12/18 06:55:56;;;;;;;0.60;0.13;;;;;;;;;;5034635;28;20037;-68
2021/12/18 06:58:21;;;;;;;0.55;0.20;;;;;;;;;;5034169;28;20071;-67
2021/12/18 07:00:47;;;;;;;1.13;0.20;;;;;;;;;;5033983;28;20037;-67
2021/12/18 07:03:12;;;;;;;0.10;0.10;;;;;;;;;;5034066;28;20099;-66
2021/12/18 07:05:37;;;;;;;0.20;0.00;;;;;;;;;;5032617;28;20029;-67
2021/12/18 07:08:02;;;;;;;0.43;0.00;;;;;;;;;;5034140;28;20025;-66
2021/12/18 07:10:30;;;;;;;0.10;0.10;;;;;;;;;;5033877;28;20123;-67
2021/12/18 07:12:55;;;;;;;0.35;0.15;;;;;;;;;;5034153;28;20092;-66
2021/12/18 07:15:20;;;;;;;0.17;0.10;;;;;;;;;;5033961;28;20480;-67
2021/12/18 07:17:45;;;;;;;0.73;0.20;;;;;;;;;;5033877;28;20044;-67
2021/12/18 07:20:11;;;;;;;0.23;0.10;;;;;;;;;;5033797;28;20242;-67
2021/12/18 07:22:36;;;;;;;0.63;0.10;;;;;;;;;;5033542;28;20101;-67
2021/12/18 07:25:02;;;;;;;0.43;0.10;;;;;;;;;;5034001;28;20044;-67
2021/12/18 07:27:27;;;;;;;0.85;0.03;;;;;;;;;;5033608;28;20437;-67
2021/12/18 07:29:52;;;;;;;0.23;0.00;;;;;;;;;;5033913;28;20068;-67
2021/12/18 07:32:17;;;;;;;0.30;0.10;;;;;;;;;;5033569;28;20342;-67
2021/12/18 07:34:42;;;;;;;0.20;0.10;;;;;;;;;;5033343;28;20017;-67
2021/12/18 07:37:08;;;;;;;0.65;0.20;;;;;;;;;;5033341;28;20048;-67
2021/12/18 07:39:33;;;;;;;0.23;0.00;;;;;;;;;;5033370;28;20017;-66
2021/12/18 07:41:58;;;;;;;0.20;0.00;;;;;;;;;;5033473;28;20108;-66
2021/12/18 07:44:23;;;;;;;0.80;0.10;;;;;;;;;;5033322;28;20029;-66
2021/12/18 07:46:49;;;;;;;0.10;0.00;;;;;;;;;;5032950;28;20513;-66
2021/12/18 07:49:14;;;;;;;0.17;0.03;;;;;;;;;;5033233;28;20149;-66
2021/12/18 07:51:39;;;;;;;0.40;0.13;;;;;;;;;;5033079;28;20718;-66
2021/12/18 07:54:05;;;;;;;0.50;0.22;;;;;;;;;;5031926;28;20333;-66
2021/12/18 07:56:30;;;;;;;0.55;0.13;;;;;;;;;;5031692;28;20025;-67
2021/12/18 07:58:56;;;;;;;0.40;0.15;;;;;;;;;;5032960;28;20033;-66
2021/12/18 08:01:21;;;;;;;0.65;0.20;;;;;;;;;;5033089;28;20503;-66
2021/12/18 08:03:46;;;;;;;0.07;0.00;;;;;;;;;;5032850;28;20021;-66
2021/12/18 08:06:12;;;;;;;0.70;0.10;;;;;;;;;;5033035;28;20326;-66
2021/12/18 08:08:37;;;;;;;0.08;0.00;;;;;;;;;;5032674;28;20026;-66
2021/12/18 08:11:02;;;;;;;0.10;0.00;;;;;;;;;;5032430;28;20152;-66
2021/12/18 08:13:28;;;;;;;0.65;0.10;;;;;;;;;;5032790;28;20250;-66
2021/12/18 08:15:53;;;;;;;0.38;0.10;;;;;;;;;;5032791;28;20025;-66
2021/12/18 08:18:18;;;;;;;0.45;0.10;;;;;;;;;;5032764;28;20021;-66
2021/12/18 08:20:44;;;;;;;1.45;0.20;;;;;;;;;;5032569;28;20078;-66
2021/12/18 08:23:09;;;;;;;0.20;0.20;;;;;;;;;;5032673;28;20357;-66
2021/12/18 08:25:35;;;;;;;0.20;0.17;;;;;;;;;;5032518;28;20449;-66
2021/12/18 08:28:01;;;;;;;0.82;0.13;;;;;;;;;;5032667;28;20030;-66
2021/12/18 08:30:27;;;;;;;0.85;0.15;;;;;;;;;;5031305;28;20102;-66
2021/12/18 08:32:52;;;;;;;0.25;0.10;;;;;;;;;;5032633;28;20033;-66
2021/12/18 08:35:17;;;;;;;0.77;0.10;;;;;;;;;;5032592;28;20025;-66
2021/12/18 08:37:43;;;;;;;0.85;0.10;;;;;;;;;;5032505;28;20029;-66
2021/12/18 08:40:08;;;;;;;0.30;0.10;;;;;;;;;;5032464;28;20034;-66
2021/12/18 08:42:33;;;;;;;1.13;0.10;;;;;;;;;;5032160;28;20254;-67
2021/12/18 08:44:59;;;;;;;0.22;0.00;;;;;;;;;;5032305;28;20402;-67
2021/12/18 08:47:25;;;;;;;0.70;0.03;;;;;;;;;;5032215;28;20060;-66
2021/12/18 08:49:50;;;;;;;0.10;0.10;;;;;;;;;;5032270;28;20091;-67
2021/12/18 08:52:16;;;;;;;0.55;0.00;;;;;;;;;;5032435;28;20053;-67
2021/12/18 08:54:41;;;;;;;0.85;0.10;;;;;;;;;;5032008;28;20483;-66
2021/12/18 08:57:06;;;;;;;0.37;0.10;;;;;;;;;;5032209;28;20025;-66
2021/12/18 08:59:32;;;;;;;0.77;0.30;;;;;;;;;;5032093;28;20246;-66
2021/12/18 09:01:57;;;;;;;0.32;0.08;;;;;;;;;;5032583;28;20033;-68
2021/12/18 09:04:22;;;;;;;0.20;0.00;;;;;;;;;;5032273;28;20416;-67
2021/12/18 09:06:47;;;;;;;0.53;0.37;;;;;;;;;;5032089;28;20253;-67
2021/12/18 09:09:12;;;;;;;0.20;0.00;;;;;;;;;;5030857;28;20637;-67
2021/12/18 09:11:38;;;;;;;0.87;0.03;;;;;;;;;;5031977;28;20116;-67
2021/12/18 09:14:04;;;;;;;0.68;0.00;;;;;;;;;;5032205;28;20255;-67
2021/12/18 09:16:30;;;;;;;0.10;0.10;;;;;;;;;;5030689;28;20018;-67
2021/12/18 09:18:56;;;;;;;0.05;0.00;;;;;;;;;;5031966;28;20491;-66
2021/12/18 09:21:21;;;;;;;0.80;0.00;;;;;;;;;;5032067;28;20053;-67
2021/12/18 09:23:46;;;;;;;0.32;0.20;;;;;;;;;;5035559;28;20064;-66
2021/12/18 09:26:11;;;;;;;0.10;0.00;;;;;;;;;;5036455;28;20468;-66
2021/12/18 09:28:37;;;;;;;0.37;0.10;;;;;;;;;;5035691;28;20025;-66
2021/12/18 09:31:02;;;;;;;0.10;0.03;;;;;;;;;;5035300;28;20258;-66
2021/12/18 09:33:27;;;;;;;0.30;0.03;;;;;;;;;;5035731;28;20278;-66
2021/12/18 09:35:52;;;;;;;0.20;0.00;;;;;;;;;;5035813;28;20479;-66
2021/12/18 09:38:17;;;;;;;0.43;0.10;;;;;;;;;;5035693;28;20384;-66
2021/12/18 09:40:43;;;;;;;0.13;0.10;;;;;;;;;;5035485;28;20247;-66
2021/12/18 09:43:08;;;;;;;0.47;0.10;;;;;;;;;;5035553;28;20029;-66
2021/12/18 09:45:33;;;;;;;0.47;0.10;;;;;;;;;;5035434;28;20050;-67
2021/12/18 09:47:59;;;;;;;0.17;0.00;;;;;;;;;;5034349;28;20022;-66
2021/12/18 09:50:25;;;;;;;0.50;0.10;;;;;;;;;;5035456;28;20029;-67
2021/12/18 09:52:51;;;;;;;0.10;0.10;;;;;;;;;;5034104;28;20116;-66
2021/12/18 09:55:18;;;;;;;1.02;0.30;;;;;;;;;;5035492;28;20108;-67
2021/12/18 09:57:44;;;;;;;0.65;0.20;;;;;;;;;;5035274;28;20022;-66
2021/12/18 10:00:12;;;;;;;0.40;0.03;;;;;;;;;;5035122;28;20231;-66
2021/12/18 10:02:38;;;;;;;0.32;0.10;;;;;;;;;;5033734;28;20014;-67
2021/12/18 10:05:04;;;;;;;0.32;0.25;;;;;;;;;;5035234;28;20024;-66
2021/12/18 10:07:29;;;;;;;0.85;0.10;;;;;;;;;;5035160;28;20025;-67
2021/12/18 10:09:57;;;;;;;0.40;0.10;;;;;;;;;;5033920;28;20029;-67
2021/12/18 10:12:27;;;;;;;0.35;0.00;;;;;;;;;;5035152;28;20017;-67
2021/12/18 10:14:56;;;;;;;0.40;0.10;;;;;;;;;;5034899;28;20025;-66
2021/12/18 10:17:21;;;;;;;0.35;0.10;;;;;;;;;;5035038;28;20518;-67
2021/12/18 10:19:47;;;;;;;1.27;0.30;;;;;;;;;;5034895;28;20017;-67
2021/12/18 10:22:15;;;;;;;0.57;0.20;;;;;;;;;;5034989;28;20021;-66
2021/12/18 10:24:42;;;;;;;0.20;0.08;;;;;;;;;;5034592;28;20013;-67
2021/12/18 10:27:18;;;;;;;0.40;0.10;;;;;;;;;;5034838;28;20025;-66
2021/12/18 10:29:43;;;;;;;0.25;0.10;;;;;;;;;;5034726;28;20014;-66
2021/12/18 10:32:10;;;;;;;0.98;0.22;;;;;;;;;;5034750;28;20022;-66
2021/12/18 10:34:36;;;;;;;0.95;0.00;;;;;;;;;;5034152;28;20480;-66
2021/12/18 10:37:10;;;;;;;0.88;0.45;;;;;;;;;;5033353;28;20021;-66
2021/12/18 10:39:36;;;;;;;0.50;0.15;;;;;;;;;;5033464;28;20021;-66
2021/12/18 10:42:15;;;;;;;0.30;0.10;;;;;;;;;;5034544;28;20029;-67
2021/12/18 10:44:54;;;;;;;1.30;0.20;;;;;;;;;;5034335;28;20495;-66
2021/12/18 10:47:19;;;;;;;0.50;0.20;;;;;;;;;;5034313;28;20484;-67
2021/12/18 10:49:44;;;;;;;0.27;0.00;;;;;;;;;;5034306;28;20120;-66
2021/12/18 10:52:10;;;;;;;0.70;0.20;;;;;;;;;;5034336;28;20247;-67
2021/12/18 10:54:35;;;;;;;0.40;0.00;;;;;;;;;;5034153;28;20457;-68
2021/12/18 10:57:00;;;;;;;0.43;0.05;;;;;;;;;;5034301;28;20298;-67
2021/12/18 10:59:31;;;;;;;0.50;0.10;;;;;;;;;;5032847;28;20456;-67
2021/12/18 11:02:11;;;;;;;0.25;0.10;;;;;;;;;;5034301;28;20105;-67
2021/12/18 11:04:40;;;;;;;0.35;0.08;;;;;;;;;;5033957;28;20017;-67
2021/12/18 11:07:21;;;;;;;0.70;0.00;;;;;;;;;;5034095;28;20025;-67
2021/12/18 11:10:12;;;;;;;0.30;0.10;;;;;;;;;;5032649;28;20104;-67
2021/12/18 11:15:16;;;;;;;0.20;0.10;;;;;;;;;;5034058;28;20021;-66
2021/12/18 11:17:41;;;;;;;0.20;0.00;;;;;;;;;;5033722;28;20025;-66
2021/12/18 11:20:07;;;;;;;0.10;0.00;;;;;;;;;;5032560;28;20022;-66
2021/12/18 11:22:32;;;;;;;0.77;0.20;;;;;;;;;;5032335;28;20312;-67
2021/12/18 11:25:00;;;;;;;0.75;0.17;;;;;;;;;;5033898;28;20021;-67
2021/12/18 11:27:26;;;;;;;0.60;0.10;;;;;;;;;;5033687;28;20056;-67
2021/12/18 11:29:55;;;;;;;0.52;0.10;;;;;;;;;;5032331;28;20021;-67
2021/12/18 11:32:22;;;;;;;0.60;0.10;;;;;;;;;;5033672;28;20028;-66
2021/12/18 11:34:48;;;;;;;0.47;0.10;;;;;;;;;;5033370;28;20013;-67
2021/12/18 11:37:15;;;;;;;1.08;0.20;;;;;;;;;;5033704;28;20047;-67
2021/12/18 11:39:40;;;;;;;0.50;0.10;;;;;;;;;;5032114;28;20068;-67
2021/12/18 11:42:06;;;;;;;0.65;0.00;;;;;;;;;;5033519;28;20009;-67
2021/12/18 11:44:35;;;;;;;1.42;0.30;;;;;;;;;;5032514;28;20427;-66
2021/12/18 11:47:20;;;;;;;0.30;0.10;;;;;;;;;;5033151;28;20432;-67
2021/12/18 11:49:45;;;;;;;1.10;0.20;;;;;;;;;;5031913;28;20496;-67
2021/12/18 11:52:10;;;;;;;0.10;0.00;;;;;;;;;;5033201;28;20025;-67
2021/12/18 11:54:45;;;;;;;0.17;0.10;;;;;;;;;;5033053;28;20035;-67
2021/12/18 11:57:11;;;;;;;0.65;0.10;;;;;;;;;;5033007;28;20385;-67
2021/12/18 11:59:38;;;;;;;1.05;0.20;;;;;;;;;;5033058;28;20093;-67
2021/12/18 12:02:03;;;;;;;1.48;0.20;;;;;;;;;;5033193;28;20018;-67
2021/12/18 12:04:49;;;;;;;0.10;0.10;;;;;;;;;;5032841;28;20055;-67
2021/12/18 12:07:21;;;;;;;0.40;0.25;;;;;;;;;;5032704;28;20464;-66
2021/12/18 12:10:05;;;;;;;0.10;0.10;;;;;;;;;;5032865;28;20048;-66
2021/12/18 12:12:47;;;;;;;0.13;0.10;;;;;;;;;;5032726;28;20025;-66
2021/12/18 12:15:14;;;;;;;0.40;0.10;;;;;;;;;;5032801;28;20025;-66
2021/12/18 12:17:52;;;;;;;0.20;0.10;;;;;;;;;;5032525;28;20464;-67
2021/12/18 12:20:30;;;;;;;0.30;0.10;;;;;;;;;;5031555;28;20044;-67
2021/12/18 12:22:58;;;;;;;0.30;0.25;;;;;;;;;;5032463;28;20022;-66
2021/12/18 12:25:35;;;;;;;0.98;0.20;;;;;;;;;;5032653;28;20022;-67
2021/12/18 12:28:20;;;;;;;0.45;0.13;;;;;;;;;;5032604;28;20083;-67
2021/12/18 12:30:51;;;;;;;0.30;0.10;;;;;;;;;;5031633;28;20033;-67
2021/12/18 12:33:26;;;;;;;1.65;0.63;;;;;;;;;;5032599;28;20600;-66
2021/12/18 12:35:54;;;;;;;0.20;0.15;;;;;;;;;;5032501;28;20136;-66
2021/12/18 12:38:24;;;;;;;0.50;0.10;;;;;;;;;;5032452;28;20040;-66
2021/12/18 12:40:49;;;;;;;0.50;0.10;;;;;;;;;;5032239;28;20036;-66
2021/12/18 12:43:22;;;;;;;0.68;0.10;;;;;;;;;;5032429;28;20029;-66
2021/12/18 12:45:50;;;;;;;0.00;0.00;;;;;;;;;;5032097;28;20164;-66
2021/12/18 12:48:16;;;;;;;0.63;0.20;;;;;;;;;;5031366;28;20373;-68
2021/12/18 12:50:41;;;;;;;0.20;0.10;;;;;;;;;;5030782;28;20041;-67
2021/12/18 12:53:08;;;;;;;0.28;0.00;;;;;;;;;;5032327;28;20657;-66
2021/12/18 12:55:41;;;;;;;0.65;0.20;;;;;;;;;;5032136;28;20464;-66
2021/12/18 12:58:15;;;;;;;0.45;0.10;;;;;;;;;;5032051;28;20528;-66
2021/12/18 13:00:40;;;;;;;;;;;;;;;;;;5032442;28;20036;-67
2021/12/18 13:03:07;;;;;;;0.10;0.10;;;;;;;;;;5032242;28;20344;-67
2021/12/18 13:05:42;;;;;;;0.40;0.08;;;;;;;;;;5032058;28;20746;-67
2021/12/18 13:08:08;;;;;;;0.05;0.00;;;;;;;;;;5032195;28;20067;-67
2021/12/18 13:10:36;;;;;;;0.20;0.10;;;;;;;;;;5030656;28;20062;-67
2021/12/18 13:13:05;;;;;;;0.32;0.10;;;;;;;;;;5032068;28;20413;-67
2021/12/18 13:15:45;;;;;;;0.50;0.10;;;;;;;;;;5032308;28;20017;-67
2021/12/18 13:18:10;;;;;;;0.75;0.13;;;;;;;;;;5031982;28;20026;-66
2021/12/18 13:20:46;;;;;;;0.30;0.00;;;;;;;;;;5031897;28;20084;-66
2021/12/18 13:23:18;;;;;;;0.60;0.10;;;;;;;;;;5031973;28;20021;-66
2021/12/18 13:25:54;;;;;;;0.85;0.10;;;;;;;;;;5031856;28;20108;-66
2021/12/18 13:28:20;;;;;;;0.47;0.10;;;;;;;;;;5030707;28;20025;-66
2021/12/18 13:30:48;;;;;;;0.40;0.10;;;;;;;;;;5032094;28;20599;-67
2021/12/18 13:33:13;;;;;;;0.13;0.03;;;;;;;;;;5031911;28;20032;-66
2021/12/18 13:35:39;;;;;;;0.32;0.17;;;;;;;;;;5031755;28;20022;-66
2021/12/18 13:38:10;;;;;;;0.10;0.00;;;;;;;;;;5030627;28;20029;-66
2021/12/18 13:40:43;;;;;;;0.20;0.10;;;;;;;;;;5030395;28;20010;-67
2021/12/18 13:43:13;;;;;;;0.70;0.10;;;;;;;;;;5032036;28;20029;-67
2021/12/18 13:45:48;;;;;;;0.50;0.03;;;;;;;;;;5031553;28;20010;-67
2021/12/18 13:48:13;;;;;;;0.57;0.10;;;;;;;;;;5031783;28;20029;-67
2021/12/18 13:50:38;;;;;;;0.70;0.17;;;;;;;;;;5031580;28;20468;-67
2021/12/18 13:53:05;;;;;;;0.83;0.17;;;;;;;;;;5031794;28;20021;-67
2021/12/18 13:55:34;;;;;;;0.70;0.10;;;;;;;;;;5031690;28;20260;-67
2021/12/18 13:58:07;;;;;;;1.00;0.55;;;;;;;;;;5031740;28;20044;-67
2021/12/18 14:00:46;;;;;;;0.55;0.22;;;;;;;;;;5031607;28;20051;-67
2021/12/18 14:03:17;;;;;;;0.05;0.00;;;;;;;;;;5030383;28;20048;-66
2021/12/18 14:05:43;;;;;;;0.52;0.10;;;;;;;;;;5031583;28;20017;-66
2021/12/18 14:08:08;;;;;;;0.13;0.00;;;;;;;;;;5032565;28;20075;-66
2021/12/18 14:10:33;;;;;;;0.30;0.10;;;;;;;;;;5035057;28;20025;-66
2021/12/18 14:12:59;;;;;;;0.20;0.00;;;;;;;;;;5035176;28;20021;-66
2021/12/18 14:15:24;;;;;;;0.30;0.00;;;;;;;;;;5035131;28;20104;-66
2021/12/18 14:17:49;;;;;;;0.27;0.10;;;;;;;;;;5034973;28;20370;-66
2021/12/18 14:20:14;;;;;;;0.30;0.23;;;;;;;;;;5035029;28;20258;-66
2021/12/18 14:22:41;;;;;;;0.17;0.17;;;;;;;;;;5034810;28;20122;-66
2021/12/18 14:25:07;;;;;;;0.40;0.20;;;;;;;;;;5034830;28;20036;-65
2021/12/18 14:27:41;;;;;;;0.57;0.20;;;;;;;;;;5034871;28;20017;-66
2021/12/18 14:30:14;;;;;;;2.50;0.30;;;;;;;;;;5034997;28;20014;-66
2021/12/18 14:32:40;;;;;;;0.85;0.32;;;;;;;;;;5034563;28;20028;-67
2021/12/18 14:35:06;;;;;;;0.50;0.30;;;;;;;;;;5034724;28;20013;-67
2021/12/18 14:37:31;;;;;;;0.08;0.05;;;;;;;;;;5034565;28;20041;-67
2021/12/18 14:39:57;;;;;;;1.50;0.10;;;;;;;;;;5034747;28;20079;-67
2021/12/18 14:42:35;;;;;;;0.05;0.05;;;;;;;;;;5034654;28;20251;-66
2021/12/18 14:45:04;;;;;;;0.65;0.20;;;;;;;;;;5034780;28;20401;-67
2021/12/18 14:47:31;;;;;;;0.03;0.00;;;;;;;;;;5033041;28;20503;-67
2021/12/18 14:49:56;;;;;;;0.55;0.10;;;;;;;;;;5034514;28;20470;-67
2021/12/18 14:52:21;;;;;;;0.32;0.10;;;;;;;;;;5033148;28;20492;-66
2021/12/18 14:54:52;;;;;;;0.65;0.10;;;;;;;;;;5034258;28;20468;-66
2021/12/18 14:57:19;;;;;;;0.10;0.00;;;;;;;;;;5034788;28;20035;-67
2021/12/18 14:59:44;;;;;;;0.47;0.28;;;;;;;;;;5034412;28;20021;-66
2021/12/18 15:02:09;;;;;;;0.70;0.10;;;;;;;;;;5034227;28;20074;-66
2021/12/18 15:04:34;;;;;;;0.50;0.10;;;;;;;;;;5032760;28;20752;-66
2021/12/18 15:07:00;;;;;;;0.00;0.00;;;;;;;;;;5034151;28;20021;-66
2021/12/18 15:09:28;;;;;;;0.10;0.10;;;;;;;;;;5034078;28;20372;-66
2021/12/18 15:11:53;;;;;;;0.40;0.10;;;;;;;;;;5034040;28;20257;-66
2021/12/18 15:14:20;;;;;;;0.20;0.10;;;;;;;;;;5034122;28;20017;-66
2021/12/18 15:16:46;;;;;;;0.20;0.10;;;;;;;;;;5033804;28;20021;-66
2021/12/18 15:19:21;;;;;;;0.10;0.10;;;;;;;;;;5031829;28;20056;-66
2021/12/18 15:21:47;;;;;;;0.52;0.20;;;;;;;;;;5033789;28;20147;-66
2021/12/18 15:24:13;;;;;;;0.40;0.15;;;;;;;;;;5032498;28;20068;-66
2021/12/18 15:26:39;;;;;;;0.30;0.22;;;;;;;;;;5033608;28;20026;-66
2021/12/18 15:29:06;;;;;;;0.10;0.10;;;;;;;;;;5033702;28;20096;-67
2021/12/18 15:31:31;;;;;;;1.08;0.10;;;;;;;;;;5032286;28;20021;-66